TimeCST,TemperatureF,Dew PointF,Humidity,Sea Level PressureIn,VisibilityMPH,Wind Direction,Wind SpeedMPH,Gust SpeedMPH,PrecipitationIn,Events,Conditions,WindDirDegrees,DateUTC
12:38 AM,39.2,39.2,100,29.88,6.0,North,15.0,-,0.03,Rain,Light Rain,360,2013-02-13 06:38:00
12:49 AM,39.2,39.2,100,29.89,6.0,North,12.7,-,0.04,Rain,Light Rain,350,2013-02-13 06:49:00
12:56 AM,38.8,38.8,100,29.89,6.0,NNW,12.7,-,0.04,Rain,Light Rain,340,2013-02-13 06:56:00
1:56 AM,37.9,37.9,100,29.89,8.0,NNW,15.0,-,0.03,Rain,Light Rain,340,2013-02-13 07:56:00
2:22 AM,37.4,37.4,100,29.89,10.0,NNW,19.6,24.2,0.01,Rain,Light Rain,340,2013-02-13 08:22:00
2:56 AM,37.9,36.9,96,29.89,9.0,NNW,15.0,-,0.02,Rain,Light Rain,340,2013-02-13 08:56:00
3:34 AM,37.4,37.4,100,29.89,10.0,NNW,13.8,23.0,0.00,Rain,Light Rain,340,2013-02-13 09:34:00
3:56 AM,36.9,36.9,100,29.90,10.0,North,11.5,-,0.01,Rain,Light Rain,350,2013-02-13 09:56:00
4:56 AM,36.9,36.9,100,29.91,10.0,North,9.2,-,0.00,Rain,Light Rain,350,2013-02-13 10:56:00
5:09 AM,37.4,37.4,100,29.90,10.0,NNW,10.4,-,0.00,Rain,Light Rain,340,2013-02-13 11:09:00
5:56 AM,36.9,36.9,100,29.92,10.0,North,6.9,-,0.00,,Overcast,10,2013-02-13 11:56:00
6:37 AM,37.4,37.4,100,29.94,10.0,WNW,9.2,-,N/A,,Overcast,300,2013-02-13 12:37:00
6:56 AM,37.9,37.9,100,29.96,10.0,Variable,4.6,-,N/A,,Overcast,0,2013-02-13 12:56:00
7:04 AM,37.4,37.4,100,29.96,10.0,WNW,5.8,-,N/A,,Overcast,300,2013-02-13 13:04:00
7:56 AM,37.9,37.9,100,29.98,10.0,NNW,10.4,-,0.00,Rain,Light Rain,340,2013-02-13 13:56:00
8:13 AM,37.4,37.4,100,29.99,10.0,NNW,6.9,-,0.00,Rain,Light Rain,340,2013-02-13 14:13:00
8:56 AM,38.8,37.9,97,30.00,10.0,NW,6.9,-,0.00,Rain,Light Rain,320,2013-02-13 14:56:00
9:56 AM,39.9,37.9,93,30.03,10.0,North,-9999.0,-,0.00,,Overcast,0,2013-02-13 15:56:00
10:05 AM,39.2,37.4,93,30.03,10.0,NNW,9.2,43.7,N/A,,Squalls,340,2013-02-13 16:05:00
10:20 AM,39.2,37.4,93,30.04,10.0,NNW,10.4,-,N/A,,Overcast,330,2013-02-13 16:20:00
10:56 AM,39.9,37.9,93,30.05,10.0,Variable,5.8,-,0.00,Rain,Light Rain,0,2013-02-13 16:56:00
11:16 AM,39.2,37.4,93,30.04,10.0,NW,5.8,-,0.00,,Overcast,320,2013-02-13 17:16:00
11:33 AM,41.0,37.4,87,30.04,10.0,Variable,4.6,-,0.00,,Overcast,0,2013-02-13 17:33:00
11:56 AM,43.9,38.8,82,30.03,10.0,Variable,6.9,-,0.00,,Overcast,0,2013-02-13 17:56:00
12:38 PM,46.4,39.2,76,30.01,10.0,Variable,6.9,-,N/A,,Mostly Cloudy,0,2013-02-13 18:38:00
12:56 PM,45.9,38.8,76,30.00,10.0,Variable,3.5,-,N/A,,Mostly Cloudy,0,2013-02-13 18:56:00
1:17 PM,46.4,39.2,76,29.99,10.0,WSW,6.9,-,N/A,,Scattered Clouds,240,2013-02-13 19:17:00
1:39 PM,48.2,39.2,71,29.99,10.0,West,10.4,-,N/A,,Mostly Cloudy,270,2013-02-13 19:39:00
1:56 PM,46.9,37.9,71,29.98,10.0,North,-9999.0,-,N/A,,Mostly Cloudy,0,2013-02-13 19:56:00
2:04 PM,48.2,37.4,66,29.97,10.0,North,-9999.0,-,N/A,,Scattered Clouds,0,2013-02-13 20:04:00
2:56 PM,48.9,39.9,71,29.96,10.0,SSW,15.0,19.6,N/A,,Partly Cloudy,210,2013-02-13 20:56:00
3:56 PM,48.9,38.8,68,29.96,10.0,North,-9999.0,-,N/A,,Mostly Cloudy,0,2013-02-13 21:56:00
4:56 PM,50.0,38.8,66,29.95,10.0,SSW,9.2,-,N/A,,Scattered Clouds,200,2013-02-13 22:56:00
5:56 PM,45.9,38.8,76,29.97,10.0,SSW,10.4,-,N/A,,Clear,210,2013-02-13 23:56:00
6:56 PM,45.0,37.9,76,29.98,10.0,SSW,11.5,-,N/A,,Clear,210,2013-02-14 00:56:00
7:56 PM,39.9,36.9,89,29.98,10.0,Calm,Calm,-,N/A,,Clear,0,2013-02-14 01:56:00
8:56 PM,39.9,36.9,89,30.00,10.0,SSW,4.6,-,N/A,,Clear,200,2013-02-14 02:56:00
9:56 PM,38.8,36.9,93,30.01,10.0,SSW,9.2,-,N/A,,Clear,200,2013-02-14 03:56:00
10:56 PM,37.9,36.0,93,30.01,10.0,SSW,9.2,-,N/A,,Clear,200,2013-02-14 04:56:00
11:56 PM,38.8,36.0,89,30.01,10.0,SSW,8.1,-,N/A,,Clear,210,2013-02-14 05:56:00